createdAt,value
2018-06-12T00:03:47.130Z,17.92
2018-06-12T00:08:41.668Z,17.76
2018-06-12T00:13:36.207Z,17.84
2018-06-12T00:18:30.813Z,17.88
2018-06-12T00:23:25.392Z,17.90
2018-06-12T00:28:20.768Z,17.85
2018-06-12T00:33:15.429Z,17.89
2018-06-12T00:38:10.036Z,17.82
2018-06-12T00:43:04.666Z,17.76
2018-06-12T00:48:00.294Z,17.80
2018-06-12T00:52:54.882Z,17.62
2018-06-12T00:57:49.479Z,17.53
2018-06-12T01:02:44.102Z,17.60
2018-06-12T01:07:38.723Z,17.69
2018-06-12T01:12:33.291Z,17.66
2018-06-12T01:17:27.893Z,17.60
2018-06-12T01:22:22.458Z,17.52
2018-06-12T01:27:17.347Z,17.40
2018-06-12T01:32:11.912Z,17.48
2018-06-12T01:37:06.542Z,17.62
2018-06-12T01:42:01.115Z,17.70
2018-06-12T01:46:55.745Z,17.69
2018-06-12T01:51:50.367Z,17.67
2018-06-12T01:56:45.691Z,17.72
2018-06-12T02:01:40.251Z,17.72
2018-06-12T02:06:34.810Z,17.73
2018-06-12T02:11:29.399Z,17.75
2018-06-12T02:16:23.959Z,17.79
2018-06-12T02:21:18.543Z,17.92
2018-06-12T02:26:13.083Z,17.94
2018-06-12T02:31:07.727Z,17.96
2018-06-12T02:36:02.358Z,17.96
2018-06-12T02:40:56.932Z,17.99
2018-06-12T02:45:51.505Z,18.04
2018-06-12T02:50:46.376Z,17.98
2018-06-12T02:55:40.920Z,17.89
2018-06-12T03:00:35.476Z,17.93
2018-06-12T03:05:30.095Z,17.89
2018-06-12T03:10:24.679Z,17.93
2018-06-12T03:15:19.256Z,17.92
2018-06-12T03:20:13.808Z,17.89
2018-06-12T03:25:08.402Z,17.88
2018-06-12T03:30:02.960Z,17.89
2018-06-12T03:34:57.542Z,17.94
2018-06-12T03:39:52.133Z,18.01
2018-06-12T03:44:46.986Z,18.07
2018-06-12T03:49:41.632Z,18.19
2018-06-12T03:54:36.498Z,18.25
2018-06-12T03:59:31.145Z,18.32
2018-06-12T04:04:25.712Z,18.41
2018-06-12T04:09:20.347Z,18.33
2018-06-12T04:14:14.911Z,18.31
2018-06-12T04:19:09.522Z,18.38
2018-06-12T04:24:04.237Z,18.46
2018-06-12T04:28:58.867Z,18.48
2018-06-12T04:33:53.447Z,18.45
2018-06-12T04:38:48.043Z,18.46
2018-06-12T04:43:42.558Z,18.45
2018-06-12T04:48:37.151Z,18.50
2018-06-12T04:53:32.030Z,18.51
2018-06-12T04:58:26.588Z,18.51
2018-06-12T05:03:21.182Z,18.56
2018-06-12T05:08:15.785Z,18.67
2018-06-12T05:13:10.417Z,18.70
2018-06-12T05:18:05.130Z,18.86
2018-06-12T05:22:59.760Z,19.01
2018-06-12T05:27:54.363Z,19.14
2018-06-12T05:32:48.920Z,19.24
2018-06-12T05:37:43.485Z,19.25
2018-06-12T05:42:38.246Z,19.18
2018-06-12T05:47:32.842Z,19.20
2018-06-12T05:52:27.470Z,19.20
2018-06-12T05:57:22.059Z,19.23
2018-06-12T06:02:16.720Z,19.23
2018-06-12T06:07:11.282Z,19.14
2018-06-12T06:12:05.978Z,19.23
2018-06-12T06:17:00.615Z,19.24
2018-06-12T06:21:55.188Z,19.41
2018-06-12T06:26:49.768Z,19.59
2018-06-12T06:31:44.344Z,19.87
2018-06-12T06:36:38.975Z,20.18
2018-06-12T06:41:33.226Z,20.39
2018-06-12T06:46:27.815Z,20.73
2018-06-12T06:51:22.381Z,20.63
2018-06-12T06:56:16.992Z,20.30
2018-06-12T07:01:11.541Z,20.55
2018-06-12T07:06:06.191Z,20.84
2018-06-12T07:11:00.771Z,21.01
2018-06-12T07:15:55.407Z,21.26
2018-06-12T07:21:52.786Z,21.13
2018-06-12T07:26:47.319Z,21.37
2018-06-12T07:31:42.163Z,21.29
2018-06-12T07:36:36.774Z,21.21
2018-06-12T07:41:32.214Z,21.19
2018-06-12T07:46:26.782Z,21.32
2018-06-12T07:51:21.374Z,21.42
2018-06-12T07:56:15.932Z,21.39
2018-06-12T08:01:10.446Z,21.64
2018-06-12T08:06:05.085Z,21.93
2018-06-12T08:10:59.623Z,22.13
2018-06-12T08:15:54.178Z,22.73
2018-06-12T08:20:48.743Z,23.69
2018-06-12T08:25:43.298Z,24.49
2018-06-12T08:30:37.919Z,24.03
2018-06-12T08:35:32.535Z,23.82
2018-06-12T08:40:27.124Z,23.55
2018-06-12T08:45:21.679Z,23.20
2018-06-12T08:50:16.575Z,22.60
2018-06-12T08:55:11.135Z,22.56
2018-06-12T09:00:05.830Z,22.43
2018-06-12T09:05:00.349Z,22.80
2018-06-12T09:09:54.942Z,23.18
2018-06-12T09:14:49.462Z,23.02
2018-06-12T09:19:44.043Z,23.29
2018-06-12T09:24:38.574Z,23.49
2018-06-12T09:29:33.220Z,23.77
2018-06-12T09:34:27.484Z,23.40
2018-06-12T09:39:22.059Z,23.39
2018-06-12T09:44:16.575Z,23.30
2018-06-12T09:49:12.839Z,23.51
2018-06-12T09:54:07.427Z,23.92
2018-06-12T09:59:01.988Z,24.18
2018-06-12T10:03:56.577Z,24.93
2018-06-12T10:08:51.143Z,25.33
2018-06-12T10:13:45.677Z,25.29
2018-06-12T10:18:40.277Z,24.92
2018-06-12T10:23:34.834Z,25.72
2018-06-12T10:28:29.432Z,27.45
2018-06-12T10:33:23.989Z,27.37
2018-06-12T10:38:18.510Z,27.24
2018-06-12T10:43:13.042Z,27.35
2018-06-12T10:48:07.653Z,27.33
2018-06-12T10:53:02.215Z,26.24
2018-06-12T10:57:57.765Z,26.28
2018-06-12T11:02:52.314Z,26.66
2018-06-12T11:07:46.870Z,26.43
2018-06-12T11:12:41.444Z,26.65
2018-06-12T11:17:36.067Z,27.14
2018-06-12T11:22:30.605Z,27.20
2018-06-12T11:27:25.217Z,26.64
2018-06-12T11:32:19.719Z,26.78
2018-06-12T11:37:14.279Z,26.97
2018-06-12T11:42:08.815Z,26.65
2018-06-12T11:47:03.430Z,26.11
2018-06-12T11:51:57.997Z,25.23
2018-06-12T11:56:52.562Z,24.33
2018-06-12T12:01:47.282Z,24.42
2018-06-12T12:06:41.807Z,24.51
2018-06-12T12:11:36.827Z,24.67
2018-06-12T12:16:31.400Z,24.65
2018-06-12T12:21:25.960Z,24.65
2018-06-12T12:26:21.071Z,24.74
2018-06-12T12:31:15.668Z,25.03
2018-06-12T12:36:10.223Z,25.13
2018-06-12T12:41:04.847Z,24.68
2018-06-12T12:45:59.401Z,24.53
2018-06-12T12:50:53.951Z,24.14
2018-06-12T12:55:48.510Z,24.56
2018-06-12T13:05:48.961Z,24.59
2018-06-12T13:10:43.537Z,24.99
2018-06-12T13:15:38.077Z,25.30
2018-06-12T13:20:32.307Z,25.34
2018-06-12T13:25:26.852Z,24.61
2018-06-12T13:30:21.862Z,24.63
2018-06-12T13:35:16.424Z,24.38
2018-06-12T13:40:11.094Z,24.17
2018-06-12T13:45:05.749Z,24.29
2018-06-12T13:50:02.184Z,24.35
2018-06-12T13:54:56.790Z,24.99
2018-06-12T13:59:51.382Z,24.93
2018-06-12T14:04:46.002Z,25.13
2018-06-12T14:09:41.028Z,24.94
2018-06-12T14:14:35.549Z,24.61
2018-06-12T14:19:30.154Z,24.63
2018-06-12T14:24:24.746Z,24.53
2018-06-12T14:29:19.330Z,24.45
2018-06-12T14:34:13.897Z,24.39
2018-06-12T14:39:09.818Z,24.43
2018-06-12T14:44:04.392Z,24.47
2018-06-12T14:48:58.938Z,24.50
2018-06-12T14:53:53.459Z,25.04
2018-06-12T14:58:48.046Z,25.02
2018-06-12T15:03:42.614Z,25.25
2018-06-12T15:08:37.188Z,25.12
2018-06-12T15:13:31.770Z,24.90
2018-06-12T15:18:26.363Z,24.63
2018-06-12T15:23:20.958Z,24.12
2018-06-12T15:28:15.584Z,23.97
2018-06-12T15:33:10.168Z,23.58
2018-06-12T15:38:04.731Z,23.52
2018-06-12T15:42:59.286Z,23.25
2018-06-12T15:47:53.862Z,23.04
2018-06-12T15:52:48.415Z,22.81
2018-06-12T15:57:42.988Z,22.62
2018-06-12T16:02:37.583Z,22.63
2018-06-12T16:07:32.163Z,22.59
2018-06-12T16:12:26.770Z,22.64
2018-06-12T16:17:21.350Z,22.05
2018-06-12T16:22:15.954Z,21.18
2018-06-12T16:27:10.614Z,21.02
2018-06-12T16:32:05.261Z,21.24
2018-06-12T16:36:59.899Z,21.55
2018-06-12T16:41:54.499Z,21.48
2018-06-12T16:46:49.051Z,21.59
2018-06-12T16:51:43.601Z,21.33
2018-06-12T16:56:38.237Z,21.31
2018-06-12T17:01:32.811Z,21.38
2018-06-12T17:06:27.398Z,21.48
2018-06-12T17:11:22.000Z,21.16
2018-06-12T17:16:16.614Z,20.97
2018-06-12T17:21:11.231Z,20.83
2018-06-12T17:26:05.910Z,20.61
2018-06-12T17:31:00.572Z,20.33
2018-06-12T17:35:55.299Z,19.89
2018-06-12T17:40:49.875Z,19.48
2018-06-12T17:45:44.543Z,19.45
2018-06-12T17:50:39.995Z,19.20
2018-06-12T17:55:35.067Z,19.14
2018-06-12T18:17:16.047Z,18.49
2018-06-12T18:27:24.728Z,18.42
2018-06-12T18:32:44.068Z,18.32
2018-06-12T18:38:00.124Z,18.33
2018-06-12T18:43:13.344Z,18.32
2018-06-12T18:48:34.683Z,18.24
2018-06-12T18:53:33.286Z,18.12
2018-06-12T18:58:28.632Z,18.19
2018-06-12T19:03:24.247Z,18.12
2018-06-12T19:08:29.594Z,18.08
2018-06-12T19:18:58.139Z,17.92
2018-06-12T19:24:12.462Z,17.68
2018-06-12T19:40:19.206Z,17.80
2018-06-12T19:45:14.287Z,17.79
2018-06-12T19:50:10.425Z,17.72
2018-06-12T19:55:24.798Z,17.72
2018-06-12T20:00:20.521Z,17.62
2018-06-12T20:05:19.357Z,17.79
2018-06-12T20:10:20.221Z,17.71
2018-06-12T20:16:59.350Z,17.66
2018-06-12T20:21:56.326Z,17.55
2018-06-12T20:26:51.396Z,17.45
2018-06-12T20:31:46.669Z,17.46
2018-06-12T20:36:41.871Z,17.48
2018-06-12T20:41:37.096Z,17.35
2018-06-12T20:46:32.355Z,17.37
2018-06-12T20:51:27.649Z,17.41
2018-06-12T20:56:22.667Z,17.45
2018-06-12T21:01:17.548Z,17.48
2018-06-12T21:06:12.707Z,17.50
2018-06-12T21:11:07.861Z,17.51
2018-06-12T21:16:03.065Z,17.43
2018-06-12T21:20:58.123Z,17.56
2018-06-12T21:25:53.979Z,17.41
2018-06-12T21:30:49.079Z,17.40
2018-06-12T21:36:35.267Z,17.42
2018-06-12T21:41:34.020Z,17.43
2018-06-12T21:46:31.065Z,17.40
2018-06-12T21:51:27.341Z,17.43
2018-06-12T21:56:22.491Z,17.41
2018-06-12T22:01:17.789Z,17.37
2018-06-12T22:06:13.665Z,17.32
2018-06-12T22:16:33.413Z,17.35
2018-06-12T22:21:30.760Z,17.19
2018-06-12T22:26:25.632Z,17.27
2018-06-12T23:03:51.126Z,17.18
2018-06-12T23:09:08.875Z,17.13
2018-06-12T23:14:04.823Z,17.04
2018-06-12T23:18:59.923Z,17.03
2018-06-12T23:24:10.512Z,17.04
2018-06-12T23:29:08.184Z,17.03
2018-06-12T23:34:03.306Z,17.06
2018-06-12T23:38:58.351Z,17.01
2018-06-12T23:43:53.449Z,17.02
2018-06-12T23:48:48.582Z,17.09
2018-06-12T23:59:00.560Z,17.02
